»·PEaware :: SWA7786 KPHX-KSFO

SWA7786 :: KPHX-KSFO

FLIGHT INFORMATION

Flight Status: Arrived
Operator:
Southwest Airlines
More flights by this operator :: More flights under this callsign
Pilot: Gerald H. (20718)
Aircraft: BOEING 737-800
(B738)
More flights by this aircraft type
Origin: KPHX Phoenix Sky Harbor Intl
United States
Destination: KSFO San Francisco Intl
United States
More flights between these airports :: More routes between these airports
Route: +KEENS2 HRRBR CURIV J212 DECAS PMD AVE MAKRS SERFR SERFR3
File this flight plan on PilotEdge
Remarks: FIRST PE IFR FORGIVE ME!
Altitude:
(Current/Filed)
36,000ft
Speed:
(Current/Filed)
453kts
Departed: 06-Oct-18 04:19 PM
Arrived: 06-Oct-18 05:57 PM
Distance/Time
Traveled:
565nm/1:38
Distance/Time
To Go:
Arrived

Flight Plot

Page will automatically refresh every two minutes.

Flight plan parsing failed; only flown route is shown


Map Options




Map Legend


Flown Route
Filed Route
Departure Airport
Arrival Airport
Navaid (VOR, NDB)
Fix

Horizontal Profiles

Position Reports

Time Latitude Longitude Heading Altitude Ground
Speed
06-Oct-18 15:50 33.437994 -112.008172 270 1128ft 0kts
06-Oct-18 15:51 33.437994 -112.008172 270 1128ft 0kts
06-Oct-18 15:52 33.437994 -112.008172 270 1128ft 0kts
06-Oct-18 15:53 33.437994 -112.008172 270 1128ft 0kts
06-Oct-18 15:54 33.437994 -112.008172 270 1128ft 0kts
06-Oct-18 15:55 33.437994 -112.008172 270 1128ft 0kts
06-Oct-18 15:56 33.437994 -112.008172 270 1128ft 0kts
06-Oct-18 15:57 33.437994 -112.008172 270 1128ft 0kts
06-Oct-18 15:58 33.437994 -112.008172 270 1128ft 0kts
06-Oct-18 15:59 33.437994 -112.008172 270 1128ft 0kts
06-Oct-18 16:00 33.437994 -112.008172 270 1128ft 0kts
06-Oct-18 16:01 33.437994 -112.008172 270 1128ft 0kts
06-Oct-18 16:02 33.437994 -112.008172 270 1128ft 0kts
06-Oct-18 16:03 33.437994 -112.008172 270 1128ft 0kts
06-Oct-18 16:04 33.437994 -112.008172 270 1128ft 0kts
06-Oct-18 16:05 33.437994 -112.008172 270 1128ft 0kts
06-Oct-18 16:06 33.437994 -112.008172 270 1128ft 0kts
06-Oct-18 16:07 33.437994 -112.008172 270 1128ft 0kts
06-Oct-18 16:08 33.437992 -112.008002 274 1128ft 2kts
06-Oct-18 16:09 33.437781 -112.007397 335 1128ft 2kts
06-Oct-18 16:10 33.437559 -112.007352 0 1128ft 0kts
06-Oct-18 16:11 33.437559 -112.007352 0 1128ft 0kts
06-Oct-18 16:12 33.437894 -112.007353 359 1128ft 5kts
06-Oct-18 16:13 33.438392 -112.007356 0 1129ft 0kts
06-Oct-18 16:14 33.438680 -112.007328 13 1129ft 6kts
06-Oct-18 16:15 33.439042 -112.004382 88 1129ft 12kts
06-Oct-18 16:16 33.439045 -112.000006 90 1133ft 11kts
06-Oct-18 16:17 33.439038 -111.995766 89 1133ft 12kts
06-Oct-18 16:18 33.439196 -111.992392 42 1134ft 4kts
06-Oct-18 16:19 33.439868 -111.992269 0 1136ft 0kts
06-Oct-18 16:20 33.439924 -111.992268 0 1136ft 1kts
06-Oct-18 16:21 33.440820 -111.998590 269 1135ft 95kts
06-Oct-18 16:22 33.436647 -112.049124 244 2610ft 171kts
06-Oct-18 16:23 33.417391 -112.104607 248 4243ft 194kts
06-Oct-18 16:24 33.397040 -112.166882 248 6268ft 212kts
06-Oct-18 16:25 33.396065 -112.242046 282 8294ft 255kts
06-Oct-18 16:26 33.410424 -112.331399 278 10188ft 292kts
06-Oct-18 16:27 33.425270 -112.431656 278 12014ft 322kts
06-Oct-18 16:28 33.440967 -112.538452 279 14799ft 327kts
06-Oct-18 16:29 33.451323 -112.648124 270 17281ft 340kts
06-Oct-18 16:30 33.452362 -112.760145 271 19540ft 351kts
06-Oct-18 16:31 33.466610 -112.876812 283 21677ft 361kts
06-Oct-18 16:32 33.489148 -112.995101 282 23613ft 371kts
06-Oct-18 16:33 33.511859 -113.117149 282 25355ft 382kts
06-Oct-18 16:34 33.535199 -113.243441 282 26906ft 393kts
06-Oct-18 16:35 33.558944 -113.372737 282 28331ft 404kts
06-Oct-18 16:36 33.583159 -113.505441 282 29830ft 409kts
06-Oct-18 16:37 33.607770 -113.637771 283 31559ft 404kts
06-Oct-18 16:38 33.631482 -113.765511 282 32692ft 402kts
06-Oct-18 16:39 33.655256 -113.894413 282 32671ft 396kts
06-Oct-18 16:40 33.678727 -114.023763 282 32785ft 401kts
06-Oct-18 16:41 33.701980 -114.152937 282 34301ft 393kts
06-Oct-18 16:42 33.725013 -114.280158 282 35584ft 388kts
06-Oct-18 16:43 33.748788 -114.410735 282 35685ft 415kts
06-Oct-18 16:44 33.773856 -114.549088 279 35663ft 429kts
06-Oct-18 16:45 33.780898 -114.687192 274 35669ft 429kts
06-Oct-18 16:46 33.788222 -114.823645 274 35671ft 429kts
06-Oct-18 16:47 33.795982 -114.966865 274 35669ft 428kts
06-Oct-18 16:48 33.803882 -115.109624 274 35641ft 428kts
06-Oct-18 16:49 33.811924 -115.252126 274 35641ft 428kts
06-Oct-18 16:50 33.820128 -115.394844 274 35640ft 428kts
06-Oct-18 16:51 33.847624 -115.532752 290 35641ft 428kts
06-Oct-18 16:52 33.886421 -115.663021 289 35714ft 426kts
06-Oct-18 16:53 33.925082 -115.791426 290 35770ft 425kts
06-Oct-18 16:54 33.965632 -115.925455 290 35776ft 427kts
06-Oct-18 16:55 34.006356 -116.059633 290 35777ft 427kts
06-Oct-18 16:56 34.046599 -116.191770 290 35776ft 427kts
06-Oct-18 16:57 34.087521 -116.325673 290 35775ft 427kts
06-Oct-18 16:58 34.120521 -116.433317 290 35776ft 427kts
06-Oct-18 16:59 34.168607 -116.589640 290 35776ft 427kts
06-Oct-18 17:00 34.201413 -116.695962 290 35869ft 426kts
06-Oct-18 17:01 34.249680 -116.851820 290 35941ft 426kts
06-Oct-18 17:02 34.284327 -116.963313 290 35941ft 426kts
06-Oct-18 17:03 34.332515 -117.117814 291 35942ft 426kts
06-Oct-18 17:04 34.367366 -117.229254 291 35929ft 426kts
06-Oct-18 17:05 34.409401 -117.363190 291 35831ft 425kts
06-Oct-18 17:06 34.451462 -117.496759 291 35830ft 426kts
06-Oct-18 17:07 34.493734 -117.630556 291 35819ft 426kts
06-Oct-18 17:08 34.534456 -117.759107 291 35806ft 426kts
06-Oct-18 17:09 34.576871 -117.892516 291 35805ft 426kts
06-Oct-18 17:10 34.619466 -118.026084 291 35850ft 425kts
06-Oct-18 17:11 34.676748 -118.148684 302 35860ft 426kts
06-Oct-18 17:12 34.740089 -118.269901 302 35857ft 426kts
06-Oct-18 17:13 34.803673 -118.391109 302 35856ft 426kts
06-Oct-18 17:14 34.867423 -118.512410 302 35908ft 427kts
06-Oct-18 17:15 34.931178 -118.633495 302 35909ft 426kts
06-Oct-18 17:16 34.992694 -118.750149 302 35913ft 427kts
06-Oct-18 17:17 35.056772 -118.871415 302 35913ft 427kts
06-Oct-18 17:18 35.117509 -118.986156 302 35914ft 428kts
06-Oct-18 17:19 35.181852 -119.107496 302 35812ft 428kts
06-Oct-18 17:20 35.246515 -119.229218 302 35805ft 429kts
06-Oct-18 17:21 35.311580 -119.351476 302 35804ft 429kts
06-Oct-18 17:22 35.376694 -119.473604 302 35803ft 430kts
06-Oct-18 17:23 35.441637 -119.595219 302 35803ft 431kts
06-Oct-18 17:24 35.505304 -119.714254 301 35805ft 431kts
06-Oct-18 17:25 35.571129 -119.837100 301 35806ft 432kts
06-Oct-18 17:26 35.634614 -119.962060 291 35833ft 432kts
06-Oct-18 17:27 35.659900 -120.106391 275 35829ft 436kts
06-Oct-18 17:28 35.674027 -120.254261 275 35832ft 435kts
06-Oct-18 17:29 35.711158 -120.395219 292 35827ft 441kts
06-Oct-18 17:30 35.762081 -120.531760 292 35832ft 440kts
06-Oct-18 17:31 35.812212 -120.666668 292 35831ft 439kts
06-Oct-18 17:32 35.861540 -120.799914 292 34921ft 423kts
06-Oct-18 17:33 35.910608 -120.933146 292 33952ft 429kts
06-Oct-18 17:34 35.959906 -121.067502 292 32975ft 432kts
06-Oct-18 17:35 36.009357 -121.202801 293 31998ft 435kts
06-Oct-18 17:36 36.058136 -121.339266 292 31019ft 436kts
06-Oct-18 17:37 36.131720 -121.447148 328 30112ft 444kts
06-Oct-18 17:38 36.243198 -121.493700 335 29205ft 447kts
06-Oct-18 17:39 36.342559 -121.577602 324 27219ft 431kts
06-Oct-18 17:40 36.440556 -121.655922 325 24560ft 413kts
06-Oct-18 17:41 36.534406 -121.729923 325 22134ft 393kts
06-Oct-18 17:42 36.625870 -121.802330 325 19022ft 382kts
06-Oct-18 17:43 36.713743 -121.872072 326 16788ft 368kts
06-Oct-18 17:44 36.807937 -121.913348 346 14684ft 361kts
06-Oct-18 17:45 36.902997 -121.939456 346 12633ft 344kts
06-Oct-18 17:46 36.994264 -121.969181 341 11650ft 346kts
06-Oct-18 17:47 37.083398 -122.004147 341 10550ft 320kts
06-Oct-18 17:48 37.158816 -122.033680 341 9797ft 289kts
06-Oct-18 17:49 37.233773 -122.063156 341 8627ft 284kts
06-Oct-18 17:50 37.307199 -122.092052 341 7404ft 273kts
06-Oct-18 17:51 37.375237 -122.118889 341 6000ft 245kts
06-Oct-18 17:52 37.437252 -122.140299 342 4853ft 216kts
06-Oct-18 17:53 37.490312 -122.158423 341 3845ft 189kts
06-Oct-18 17:54 37.536107 -122.179765 304 3070ft 169kts
06-Oct-18 17:55 37.556427 -122.227024 296 2334ft 158kts
06-Oct-18 17:56 37.575123 -122.271504 295 1561ft 136kts
06-Oct-18 17:57 37.592887 -122.313512 294 826ft 133kts
06-Oct-18 17:58 37.609582 -122.353187 293 149ft 118kts
06-Oct-18 17:59 37.618593 -122.374837 295 19ft 30kts
06-Oct-18 18:00 37.618907 -122.378798 254 19ft 9kts
06-Oct-18 18:01 37.617451 -122.379443 178 19ft 9kts
06-Oct-18 18:02 37.614320 -122.381165 207 19ft 15kts
06-Oct-18 18:03 37.612821 -122.383144 299 19ft 2kts
06-Oct-18 18:04 37.612829 -122.383161 300 19ft 0kts
06-Oct-18 18:05 37.612829 -122.383161 300 19ft 0kts
06-Oct-18 18:06 37.612829 -122.383161 300 19ft 0kts
06-Oct-18 18:07 37.612829 -122.383161 300 19ft 0kts
06-Oct-18 18:08 37.612829 -122.383161 300 19ft 0kts

Navigation Log

Ident Type
Flight plan parsing failed, navigation log unavailable